sensor_id;sensor_type;location;lat;lon;timestamp;P1;durP1;ratioP1;P2;durP2;ratioP2
61840;SDS011;47773;53.174;6.614;2023-02-28T00:00:23;28.58;;;10.23;;
61840;SDS011;47773;53.174;6.614;2023-02-28T00:02:49;31.08;;;9.05;;
61840;SDS011;47773;53.174;6.614;2023-02-28T00:05:17;22.00;;;8.48;;
61840;SDS011;47773;53.174;6.614;2023-02-28T00:07:44;25.17;;;9.10;;
61840;SDS011;47773;53.174;6.614;2023-02-28T00:10:12;25.08;;;8.57;;
61840;SDS011;47773;53.174;6.614;2023-02-28T00:12:39;19.10;;;7.82;;
61840;SDS011;47773;53.174;6.614;2023-02-28T00:15:07;21.77;;;8.00;;
61840;SDS011;47773;53.174;6.614;2023-02-28T00:17:35;24.90;;;8.60;;
61840;SDS011;47773;53.174;6.614;2023-02-28T00:20:01;22.75;;;6.65;;
61840;SDS011;47773;53.174;6.614;2023-02-28T00:22:40;17.95;;;7.70;;
61840;SDS011;47773;53.174;6.614;2023-02-28T00:25:08;19.60;;;7.68;;
61840;SDS011;47773;53.174;6.614;2023-02-28T00:27:35;19.83;;;7.50;;
61840;SDS011;47773;53.174;6.614;2023-02-28T00:30:02;18.30;;;7.07;;
61840;SDS011;47773;53.174;6.614;2023-02-28T00:32:28;14.27;;;6.72;;
61840;SDS011;47773;53.174;6.614;2023-02-28T00:34:54;16.73;;;7.18;;
61840;SDS011;47773;53.174;6.614;2023-02-28T00:37:20;18.92;;;7.00;;
61840;SDS011;47773;53.174;6.614;2023-02-28T00:39:46;17.70;;;6.43;;
61840;SDS011;47773;53.174;6.614;2023-02-28T00:42:12;13.07;;;6.22;;
61840;SDS011;47773;53.174;6.614;2023-02-28T00:44:38;18.10;;;6.20;;
61840;SDS011;47773;53.174;6.614;2023-02-28T00:47:03;19.70;;;6.35;;
61840;SDS011;47773;53.174;6.614;2023-02-28T00:49:29;13.23;;;5.32;;
61840;SDS011;47773;53.174;6.614;2023-02-28T00:51:55;16.65;;;5.65;;
61840;SDS011;47773;53.174;6.614;2023-02-28T00:54:22;11.80;;;5.45;;
61840;SDS011;47773;53.174;6.614;2023-02-28T00:56:48;12.18;;;5.53;;
61840;SDS011;47773;53.174;6.614;2023-02-28T00:59:16;13.10;;;5.35;;
61840;SDS011;47773;53.174;6.614;2023-02-28T01:01:43;13.00;;;5.38;;
61840;SDS011;47773;53.174;6.614;2023-02-28T01:04:10;12.07;;;5.90;;
61840;SDS011;47773;53.174;6.614;2023-02-28T01:06:35;16.42;;;5.50;;
61840;SDS011;47773;53.174;6.614;2023-02-28T01:09:02;11.15;;;5.18;;
61840;SDS011;47773;53.174;6.614;2023-02-28T01:11:28;9.13;;;5.05;;
61840;SDS011;47773;53.174;6.614;2023-02-28T01:13:54;12.23;;;6.10;;
61840;SDS011;47773;53.174;6.614;2023-02-28T01:16:20;15.25;;;6.25;;
61840;SDS011;47773;53.174;6.614;2023-02-28T01:18:45;13.20;;;5.63;;
61840;SDS011;47773;53.174;6.614;2023-02-28T01:21:12;15.50;;;5.53;;
61840;SDS011;47773;53.174;6.614;2023-02-28T01:23:41;15.98;;;5.13;;
61840;SDS011;47773;53.174;6.614;2023-02-28T01:26:08;11.63;;;5.68;;
61840;SDS011;47773;53.174;6.614;2023-02-28T01:28:36;13.27;;;5.30;;
61840;SDS011;47773;53.174;6.614;2023-02-28T01:31:04;12.18;;;5.40;;
61840;SDS011;47773;53.174;6.614;2023-02-28T01:33:31;13.82;;;5.65;;
61840;SDS011;47773;53.174;6.614;2023-02-28T01:35:57;18.27;;;7.90;;
61840;SDS011;47773;53.174;6.614;2023-02-28T01:38:27;10.52;;;5.70;;
61840;SDS011;47773;53.174;6.614;2023-02-28T01:40:53;19.00;;;8.13;;
61840;SDS011;47773;53.174;6.614;2023-02-28T01:43:29;25.63;;;11.00;;
61840;SDS011;47773;53.174;6.614;2023-02-28T01:45:57;17.33;;;8.02;;
61840;SDS011;47773;53.174;6.614;2023-02-28T01:48:34;20.30;;;7.95;;
61840;SDS011;47773;53.174;6.614;2023-02-28T01:51:08;19.65;;;8.52;;
61840;SDS011;47773;53.174;6.614;2023-02-28T01:53:47;16.92;;;6.82;;
61840;SDS011;47773;53.174;6.614;2023-02-28T01:56:22;15.23;;;6.72;;
61840;SDS011;47773;53.174;6.614;2023-02-28T01:58:51;11.63;;;5.60;;
61840;SDS011;47773;53.174;6.614;2023-02-28T02:01:20;11.90;;;5.82;;
61840;SDS011;47773;53.174;6.614;2023-02-28T02:03:51;13.27;;;5.22;;
61840;SDS011;47773;53.174;6.614;2023-02-28T02:06:25;15.27;;;5.82;;
61840;SDS011;47773;53.174;6.614;2023-02-28T02:08:54;14.07;;;5.90;;
61840;SDS011;47773;53.174;6.614;2023-02-28T02:11:20;9.40;;;4.80;;
61840;SDS011;47773;53.174;6.614;2023-02-28T02:25:11;11.98;;;5.32;;
61840;SDS011;47773;53.174;6.614;2023-02-28T02:27:54;7.68;;;4.90;;
61840;SDS011;47773;53.174;6.614;2023-02-28T02:33:16;9.88;;;5.20;;
61840;SDS011;47773;53.174;6.614;2023-02-28T02:38:33;11.43;;;5.15;;
61840;SDS011;47773;53.174;6.614;2023-02-28T02:44:06;8.38;;;5.13;;
61840;SDS011;47773;53.174;6.614;2023-02-28T02:46:40;12.13;;;6.10;;
61840;SDS011;47773;53.174;6.614;2023-02-28T02:49:09;13.00;;;5.45;;
61840;SDS011;47773;53.174;6.614;2023-02-28T02:51:41;10.55;;;5.72;;
61840;SDS011;47773;53.174;6.614;2023-02-28T02:54:09;12.00;;;5.70;;
61840;SDS011;47773;53.174;6.614;2023-02-28T02:56:41;11.25;;;5.65;;
61840;SDS011;47773;53.174;6.614;2023-02-28T02:59:11;14.80;;;5.70;;
61840;SDS011;47773;53.174;6.614;2023-02-28T03:01:41;10.88;;;6.07;;
61840;SDS011;47773;53.174;6.614;2023-02-28T03:04:10;10.85;;;6.15;;
61840;SDS011;47773;53.174;6.614;2023-02-28T03:06:43;11.07;;;5.75;;
61840;SDS011;47773;53.174;6.614;2023-02-28T03:09:08;10.65;;;5.40;;
61840;SDS011;47773;53.174;6.614;2023-02-28T03:11:35;11.75;;;6.10;;
61840;SDS011;47773;53.174;6.614;2023-02-28T03:16:59;9.57;;;5.18;;
61840;SDS011;47773;53.174;6.614;2023-02-28T03:22:40;10.00;;;5.47;;
61840;SDS011;47773;53.174;6.614;2023-02-28T03:25:27;10.48;;;5.53;;
61840;SDS011;47773;53.174;6.614;2023-02-28T03:33:31;11.02;;;5.13;;
61840;SDS011;47773;53.174;6.614;2023-02-28T03:36:10;11.00;;;5.50;;
61840;SDS011;47773;53.174;6.614;2023-02-28T03:38:47;10.70;;;5.28;;
61840;SDS011;47773;53.174;6.614;2023-02-28T03:41:42;9.18;;;4.50;;
61840;SDS011;47773;53.174;6.614;2023-02-28T03:44:25;9.70;;;4.90;;
61840;SDS011;47773;53.174;6.614;2023-02-28T03:46:57;10.82;;;5.35;;
61840;SDS011;47773;53.174;6.614;2023-02-28T03:49:30;12.02;;;5.25;;
61840;SDS011;47773;53.174;6.614;2023-02-28T03:52:00;9.70;;;5.10;;
61840;SDS011;47773;53.174;6.614;2023-02-28T03:54:30;11.35;;;5.30;;
61840;SDS011;47773;53.174;6.614;2023-02-28T03:59:28;11.95;;;5.25;;
61840;SDS011;47773;53.174;6.614;2023-02-28T04:02:04;8.10;;;4.82;;
61840;SDS011;47773;53.174;6.614;2023-02-28T04:04:30;11.38;;;5.38;;
61840;SDS011;47773;53.174;6.614;2023-02-28T04:07:04;10.13;;;5.20;;
61840;SDS011;47773;53.174;6.614;2023-02-28T04:09:32;7.82;;;4.25;;
61840;SDS011;47773;53.174;6.614;2023-02-28T04:11:57;7.97;;;4.65;;
61840;SDS011;47773;53.174;6.614;2023-02-28T04:14:23;7.78;;;4.45;;
61840;SDS011;47773;53.174;6.614;2023-02-28T04:16:49;8.73;;;4.57;;
61840;SDS011;47773;53.174;6.614;2023-02-28T04:19:16;9.40;;;4.43;;
61840;SDS011;47773;53.174;6.614;2023-02-28T04:21:49;9.40;;;4.53;;
61840;SDS011;47773;53.174;6.614;2023-02-28T04:24:20;6.72;;;4.20;;
61840;SDS011;47773;53.174;6.614;2023-02-28T04:26:49;8.00;;;4.57;;
61840;SDS011;47773;53.174;6.614;2023-02-28T04:29:21;10.68;;;4.63;;
61840;SDS011;47773;53.174;6.614;2023-02-28T04:31:49;7.82;;;4.35;;
61840;SDS011;47773;53.174;6.614;2023-02-28T04:34:15;8.00;;;4.78;;
61840;SDS011;47773;53.174;6.614;2023-02-28T04:36:41;7.40;;;4.50;;
61840;SDS011;47773;53.174;6.614;2023-02-28T04:39:07;9.25;;;4.72;;
61840;SDS011;47773;53.174;6.614;2023-02-28T04:41:34;9.23;;;4.53;;
61840;SDS011;47773;53.174;6.614;2023-02-28T04:44:00;8.18;;;4.43;;
61840;SDS011;47773;53.174;6.614;2023-02-28T04:46:26;9.25;;;4.60;;
61840;SDS011;47773;53.174;6.614;2023-02-28T04:48:51;7.20;;;4.07;;
61840;SDS011;47773;53.174;6.614;2023-02-28T04:51:18;10.05;;;4.68;;
61840;SDS011;47773;53.174;6.614;2023-02-28T04:53:44;9.15;;;4.30;;
61840;SDS011;47773;53.174;6.614;2023-02-28T04:56:12;9.88;;;4.50;;
61840;SDS011;47773;53.174;6.614;2023-02-28T04:58:39;9.77;;;5.03;;
61840;SDS011;47773;53.174;6.614;2023-02-28T05:01:06;9.13;;;4.40;;
61840;SDS011;47773;53.174;6.614;2023-02-28T05:03:41;9.20;;;5.05;;
61840;SDS011;47773;53.174;6.614;2023-02-28T05:06:10;9.52;;;4.57;;
61840;SDS011;47773;53.174;6.614;2023-02-28T05:08:37;10.60;;;4.95;;
61840;SDS011;47773;53.174;6.614;2023-02-28T05:11:03;8.43;;;4.82;;
61840;SDS011;47773;53.174;6.614;2023-02-28T05:13:31;10.88;;;5.00;;
61840;SDS011;47773;53.174;6.614;2023-02-28T05:15:56;11.27;;;5.25;;
61840;SDS011;47773;53.174;6.614;2023-02-28T05:18:22;9.52;;;5.28;;
61840;SDS011;47773;53.174;6.614;2023-02-28T05:20:47;9.00;;;5.28;;
61840;SDS011;47773;53.174;6.614;2023-02-28T05:23:13;8.98;;;5.25;;
61840;SDS011;47773;53.174;6.614;2023-02-28T05:25:40;10.40;;;5.65;;
61840;SDS011;47773;53.174;6.614;2023-02-28T05:28:06;10.52;;;5.60;;
61840;SDS011;47773;53.174;6.614;2023-02-28T05:30:32;11.07;;;5.47;;
61840;SDS011;47773;53.174;6.614;2023-02-28T05:32:58;12.07;;;6.43;;
61840;SDS011;47773;53.174;6.614;2023-02-28T05:35:24;8.48;;;5.53;;
61840;SDS011;47773;53.174;6.614;2023-02-28T05:37:51;14.50;;;6.30;;
61840;SDS011;47773;53.174;6.614;2023-02-28T05:40:17;13.15;;;6.80;;
61840;SDS011;47773;53.174;6.614;2023-02-28T05:42:44;11.13;;;6.00;;
61840;SDS011;47773;53.174;6.614;2023-02-28T05:45:10;11.77;;;6.70;;
61840;SDS011;47773;53.174;6.614;2023-02-28T05:47:36;12.75;;;6.97;;
61840;SDS011;47773;53.174;6.614;2023-02-28T05:50:02;10.60;;;6.13;;
61840;SDS011;47773;53.174;6.614;2023-02-28T05:52:28;12.82;;;7.13;;
61840;SDS011;47773;53.174;6.614;2023-02-28T05:54:55;12.40;;;6.57;;
61840;SDS011;47773;53.174;6.614;2023-02-28T05:57:21;12.35;;;7.10;;
61840;SDS011;47773;53.174;6.614;2023-02-28T05:59:47;11.38;;;6.53;;
61840;SDS011;47773;53.174;6.614;2023-02-28T06:02:14;10.75;;;6.13;;
61840;SDS011;47773;53.174;6.614;2023-02-28T06:04:41;13.73;;;6.82;;
61840;SDS011;47773;53.174;6.614;2023-02-28T06:07:07;12.35;;;7.20;;
61840;SDS011;47773;53.174;6.614;2023-02-28T06:09:34;12.48;;;6.90;;
61840;SDS011;47773;53.174;6.614;2023-02-28T06:12:00;16.05;;;7.55;;
61840;SDS011;47773;53.174;6.614;2023-02-28T06:14:28;15.75;;;8.38;;
61840;SDS011;47773;53.174;6.614;2023-02-28T06:16:56;17.85;;;8.75;;
61840;SDS011;47773;53.174;6.614;2023-02-28T06:19:22;15.38;;;8.93;;
61840;SDS011;47773;53.174;6.614;2023-02-28T06:21:50;14.48;;;8.25;;
61840;SDS011;47773;53.174;6.614;2023-02-28T06:24:18;15.02;;;8.73;;
61840;SDS011;47773;53.174;6.614;2023-02-28T06:26:44;12.80;;;7.93;;
61840;SDS011;47773;53.174;6.614;2023-02-28T06:29:10;15.07;;;9.27;;
61840;SDS011;47773;53.174;6.614;2023-02-28T06:31:36;13.95;;;8.80;;
61840;SDS011;47773;53.174;6.614;2023-02-28T06:34:03;18.33;;;8.77;;
61840;SDS011;47773;53.174;6.614;2023-02-28T06:36:29;17.40;;;8.52;;
61840;SDS011;47773;53.174;6.614;2023-02-28T06:38:55;19.25;;;8.52;;
61840;SDS011;47773;53.174;6.614;2023-02-28T06:41:22;16.85;;;8.15;;
61840;SDS011;47773;53.174;6.614;2023-02-28T06:43:49;16.50;;;9.00;;
61840;SDS011;47773;53.174;6.614;2023-02-28T06:46:14;17.15;;;9.27;;
61840;SDS011;47773;53.174;6.614;2023-02-28T06:48:40;12.88;;;8.57;;
61840;SDS011;47773;53.174;6.614;2023-02-28T06:51:09;15.48;;;8.57;;
61840;SDS011;47773;53.174;6.614;2023-02-28T06:53:36;16.65;;;9.00;;
61840;SDS011;47773;53.174;6.614;2023-02-28T06:56:06;15.57;;;8.30;;
61840;SDS011;47773;53.174;6.614;2023-02-28T06:58:33;18.75;;;8.95;;
61840;SDS011;47773;53.174;6.614;2023-02-28T07:01:00;14.85;;;8.75;;
61840;SDS011;47773;53.174;6.614;2023-02-28T07:03:26;18.35;;;9.07;;
61840;SDS011;47773;53.174;6.614;2023-02-28T07:05:51;17.02;;;8.48;;
61840;SDS011;47773;53.174;6.614;2023-02-28T07:08:17;17.05;;;8.88;;
61840;SDS011;47773;53.174;6.614;2023-02-28T07:10:43;19.40;;;9.75;;
61840;SDS011;47773;53.174;6.614;2023-02-28T07:13:09;17.45;;;9.18;;
61840;SDS011;47773;53.174;6.614;2023-02-28T07:15:35;17.25;;;9.27;;
61840;SDS011;47773;53.174;6.614;2023-02-28T07:18:02;15.82;;;8.95;;
61840;SDS011;47773;53.174;6.614;2023-02-28T07:20:28;18.33;;;9.85;;
61840;SDS011;47773;53.174;6.614;2023-02-28T07:22:54;17.90;;;9.07;;
61840;SDS011;47773;53.174;6.614;2023-02-28T07:25:28;19.65;;;10.10;;
61840;SDS011;47773;53.174;6.614;2023-02-28T07:27:54;19.85;;;10.32;;
61840;SDS011;47773;53.174;6.614;2023-02-28T07:30:21;21.05;;;9.65;;
61840;SDS011;47773;53.174;6.614;2023-02-28T07:32:47;17.88;;;9.90;;
61840;SDS011;47773;53.174;6.614;2023-02-28T07:35:12;18.98;;;9.80;;
61840;SDS011;47773;53.174;6.614;2023-02-28T07:37:40;19.90;;;10.60;;
61840;SDS011;47773;53.174;6.614;2023-02-28T07:40:07;19.60;;;10.15;;
61840;SDS011;47773;53.174;6.614;2023-02-28T07:42:35;22.20;;;10.30;;
61840;SDS011;47773;53.174;6.614;2023-02-28T07:45:01;21.65;;;10.38;;
61840;SDS011;47773;53.174;6.614;2023-02-28T07:47:28;18.15;;;10.55;;
61840;SDS011;47773;53.174;6.614;2023-02-28T07:49:55;16.65;;;10.15;;
61840;SDS011;47773;53.174;6.614;2023-02-28T07:52:21;19.55;;;10.55;;
61840;SDS011;47773;53.174;6.614;2023-02-28T07:54:48;16.52;;;9.60;;
61840;SDS011;47773;53.174;6.614;2023-02-28T07:57:14;19.60;;;9.98;;
61840;SDS011;47773;53.174;6.614;2023-02-28T07:59:40;21.95;;;10.13;;
61840;SDS011;47773;53.174;6.614;2023-02-28T08:02:06;18.25;;;10.23;;
61840;SDS011;47773;53.174;6.614;2023-02-28T08:04:36;24.90;;;10.70;;
61840;SDS011;47773;53.174;6.614;2023-02-28T08:07:02;19.55;;;10.63;;
61840;SDS011;47773;53.174;6.614;2023-02-28T08:09:27;18.80;;;10.45;;
61840;SDS011;47773;53.174;6.614;2023-02-28T08:11:54;23.60;;;10.85;;
61840;SDS011;47773;53.174;6.614;2023-02-28T08:14:20;22.08;;;10.02;;
61840;SDS011;47773;53.174;6.614;2023-02-28T08:16:46;19.92;;;10.68;;
61840;SDS011;47773;53.174;6.614;2023-02-28T08:19:11;23.35;;;11.40;;
61840;SDS011;47773;53.174;6.614;2023-02-28T08:21:37;22.25;;;11.60;;
61840;SDS011;47773;53.174;6.614;2023-02-28T08:24:03;21.50;;;10.32;;
61840;SDS011;47773;53.174;6.614;2023-02-28T08:26:28;24.90;;;11.35;;
61840;SDS011;47773;53.174;6.614;2023-02-28T08:28:54;22.75;;;11.70;;
61840;SDS011;47773;53.174;6.614;2023-02-28T08:31:20;19.80;;;10.75;;
61840;SDS011;47773;53.174;6.614;2023-02-28T08:33:46;21.63;;;11.45;;
61840;SDS011;47773;53.174;6.614;2023-02-28T08:36:14;20.83;;;10.90;;
61840;SDS011;47773;53.174;6.614;2023-02-28T08:38:40;22.92;;;11.80;;
61840;SDS011;47773;53.174;6.614;2023-02-28T08:41:07;22.55;;;11.48;;
61840;SDS011;47773;53.174;6.614;2023-02-28T08:43:34;19.30;;;10.82;;
61840;SDS011;47773;53.174;6.614;2023-02-28T08:46:01;22.88;;;11.15;;
61840;SDS011;47773;53.174;6.614;2023-02-28T08:48:29;22.80;;;12.07;;
61840;SDS011;47773;53.174;6.614;2023-02-28T08:50:56;23.35;;;12.40;;
61840;SDS011;47773;53.174;6.614;2023-02-28T08:53:36;21.25;;;12.02;;
61840;SDS011;47773;53.174;6.614;2023-02-28T08:56:14;24.27;;;12.55;;
61840;SDS011;47773;53.174;6.614;2023-02-28T08:58:42;20.90;;;10.85;;
61840;SDS011;47773;53.174;6.614;2023-02-28T09:01:13;21.88;;;12.18;;
61840;SDS011;47773;53.174;6.614;2023-02-28T09:03:47;22.55;;;11.38;;
61840;SDS011;47773;53.174;6.614;2023-02-28T09:06:14;19.38;;;11.35;;
61840;SDS011;47773;53.174;6.614;2023-02-28T09:08:41;23.15;;;11.65;;
61840;SDS011;47773;53.174;6.614;2023-02-28T09:11:08;22.08;;;11.82;;
61840;SDS011;47773;53.174;6.614;2023-02-28T09:13:34;24.42;;;12.48;;
61840;SDS011;47773;53.174;6.614;2023-02-28T09:16:01;25.65;;;12.60;;
61840;SDS011;47773;53.174;6.614;2023-02-28T09:18:28;24.48;;;13.10;;
61840;SDS011;47773;53.174;6.614;2023-02-28T09:20:54;22.55;;;12.38;;
61840;SDS011;47773;53.174;6.614;2023-02-28T09:23:20;27.55;;;11.95;;
61840;SDS011;47773;53.174;6.614;2023-02-28T09:25:53;25.52;;;12.45;;
61840;SDS011;47773;53.174;6.614;2023-02-28T09:28:20;22.05;;;11.82;;
61840;SDS011;47773;53.174;6.614;2023-02-28T09:30:47;20.50;;;11.70;;
61840;SDS011;47773;53.174;6.614;2023-02-28T09:33:17;24.02;;;11.82;;
61840;SDS011;47773;53.174;6.614;2023-02-28T09:35:46;27.27;;;12.50;;
61840;SDS011;47773;53.174;6.614;2023-02-28T09:38:12;21.52;;;11.65;;
61840;SDS011;47773;53.174;6.614;2023-02-28T09:40:49;23.00;;;11.95;;
61840;SDS011;47773;53.174;6.614;2023-02-28T09:43:17;20.27;;;12.25;;
61840;SDS011;47773;53.174;6.614;2023-02-28T09:45:49;25.55;;;11.73;;
61840;SDS011;47773;53.174;6.614;2023-02-28T09:48:24;24.95;;;13.10;;
61840;SDS011;47773;53.174;6.614;2023-02-28T09:50:55;28.42;;;12.30;;
61840;SDS011;47773;53.174;6.614;2023-02-28T09:53:31;21.58;;;11.43;;
61840;SDS011;47773;53.174;6.614;2023-02-28T09:56:04;20.02;;;11.38;;
61840;SDS011;47773;53.174;6.614;2023-02-28T09:58:56;24.60;;;12.30;;
61840;SDS011;47773;53.174;6.614;2023-02-28T10:01:50;24.77;;;11.82;;
61840;SDS011;47773;53.174;6.614;2023-02-28T10:10:22;24.20;;;12.15;;
61840;SDS011;47773;53.174;6.614;2023-02-28T10:13:02;23.40;;;10.48;;
61840;SDS011;47773;53.174;6.614;2023-02-28T10:15:32;27.85;;;12.00;;
61840;SDS011;47773;53.174;6.614;2023-02-28T10:18:02;21.85;;;10.68;;
61840;SDS011;47773;53.174;6.614;2023-02-28T10:20:31;25.25;;;10.95;;
61840;SDS011;47773;53.174;6.614;2023-02-28T10:23:13;20.88;;;11.02;;
61840;SDS011;47773;53.174;6.614;2023-02-28T10:25:45;27.38;;;11.68;;
61840;SDS011;47773;53.174;6.614;2023-02-28T10:28:17;23.60;;;10.43;;
61840;SDS011;47773;53.174;6.614;2023-02-28T10:30:45;18.33;;;8.75;;
61840;SDS011;47773;53.174;6.614;2023-02-28T10:33:15;20.65;;;9.52;;
61840;SDS011;47773;53.174;6.614;2023-02-28T10:35:52;20.92;;;11.00;;
61840;SDS011;47773;53.174;6.614;2023-02-28T10:38:19;21.77;;;10.15;;
61840;SDS011;47773;53.174;6.614;2023-02-28T10:40:47;14.63;;;8.10;;
61840;SDS011;47773;53.174;6.614;2023-02-28T10:45:39;22.45;;;9.43;;
61840;SDS011;47773;53.174;6.614;2023-02-28T10:50:44;13.82;;;7.45;;
61840;SDS011;47773;53.174;6.614;2023-02-28T11:01:15;17.08;;;6.47;;
61840;SDS011;47773;53.174;6.614;2023-02-28T11:03:42;11.32;;;5.80;;
61840;SDS011;47773;53.174;6.614;2023-02-28T11:06:22;11.73;;;6.05;;
61840;SDS011;47773;53.174;6.614;2023-02-28T11:08:58;16.87;;;6.27;;
61840;SDS011;47773;53.174;6.614;2023-02-28T11:11:45;10.50;;;5.55;;
61840;SDS011;47773;53.174;6.614;2023-02-28T11:14:23;12.63;;;6.05;;
61840;SDS011;47773;53.174;6.614;2023-02-28T11:16:51;15.00;;;6.63;;
61840;SDS011;47773;53.174;6.614;2023-02-28T11:19:25;14.77;;;6.68;;
61840;SDS011;47773;53.174;6.614;2023-02-28T11:21:56;12.82;;;6.90;;
61840;SDS011;47773;53.174;6.614;2023-02-28T11:24:29;12.98;;;6.03;;
61840;SDS011;47773;53.174;6.614;2023-02-28T11:26:58;12.13;;;6.22;;
61840;SDS011;47773;53.174;6.614;2023-02-28T11:29:31;13.05;;;6.50;;
61840;SDS011;47773;53.174;6.614;2023-02-28T11:34:44;10.68;;;6.35;;
61840;SDS011;47773;53.174;6.614;2023-02-28T11:37:20;14.93;;;6.43;;
61840;SDS011;47773;53.174;6.614;2023-02-28T11:39:46;12.18;;;5.20;;
61840;SDS011;47773;53.174;6.614;2023-02-28T11:42:22;12.88;;;5.03;;
61840;SDS011;47773;53.174;6.614;2023-02-28T11:47:45;9.82;;;5.00;;
61840;SDS011;47773;53.174;6.614;2023-02-28T12:08:49;24.83;;;11.02;;
61840;SDS011;47773;53.174;6.614;2023-02-28T12:11:40;25.35;;;11.68;;
61840;SDS011;47773;53.174;6.614;2023-02-28T12:22:43;11.20;;;6.45;;
61840;SDS011;47773;53.174;6.614;2023-02-28T12:28:27;10.35;;;6.10;;
61840;SDS011;47773;53.174;6.614;2023-02-28T12:31:09;11.90;;;6.18;;
61840;SDS011;47773;53.174;6.614;2023-02-28T12:36:10;13.38;;;7.35;;
61840;SDS011;47773;53.174;6.614;2023-02-28T12:39:23;12.65;;;7.00;;
61840;SDS011;47773;53.174;6.614;2023-02-28T12:41:40;12.60;;;6.68;;
61840;SDS011;47773;53.174;6.614;2023-02-28T12:44:13;13.63;;;6.93;;
61840;SDS011;47773;53.174;6.614;2023-02-28T12:46:47;12.43;;;6.30;;
61840;SDS011;47773;53.174;6.614;2023-02-28T12:49:17;15.48;;;7.45;;
61840;SDS011;47773;53.174;6.614;2023-02-28T12:51:50;12.90;;;6.65;;
61840;SDS011;47773;53.174;6.614;2023-02-28T12:54:19;14.95;;;7.35;;
61840;SDS011;47773;53.174;6.614;2023-02-28T12:56:57;13.27;;;6.90;;
61840;SDS011;47773;53.174;6.614;2023-02-28T12:59:44;13.13;;;6.63;;
61840;SDS011;47773;53.174;6.614;2023-02-28T13:13:23;13.20;;;6.82;;
61840;SDS011;47773;53.174;6.614;2023-02-28T13:18:33;16.40;;;7.38;;
61840;SDS011;47773;53.174;6.614;2023-02-28T13:21:04;13.02;;;6.75;;
61840;SDS011;47773;53.174;6.614;2023-02-28T13:23:56;14.45;;;6.90;;
61840;SDS011;47773;53.174;6.614;2023-02-28T13:29:27;11.60;;;6.25;;
61840;SDS011;47773;53.174;6.614;2023-02-28T13:42:36;12.23;;;7.00;;
61840;SDS011;47773;53.174;6.614;2023-02-28T13:47:44;15.65;;;6.07;;
61840;SDS011;47773;53.174;6.614;2023-02-28T13:52:54;12.32;;;7.25;;
61840;SDS011;47773;53.174;6.614;2023-02-28T14:00:58;15.50;;;7.10;;
61840;SDS011;47773;53.174;6.614;2023-02-28T14:06:29;11.70;;;6.80;;
61840;SDS011;47773;53.174;6.614;2023-02-28T14:11:42;11.10;;;6.50;;
61840;SDS011;47773;53.174;6.614;2023-02-28T14:14:09;12.32;;;7.25;;
61840;SDS011;47773;53.174;6.614;2023-02-28T14:17:22;11.60;;;7.35;;
61840;SDS011;47773;53.174;6.614;2023-02-28T14:19:46;12.40;;;6.97;;
61840;SDS011;47773;53.174;6.614;2023-02-28T14:25:33;13.30;;;6.40;;
61840;SDS011;47773;53.174;6.614;2023-02-28T14:28:14;11.52;;;6.70;;
61840;SDS011;47773;53.174;6.614;2023-02-28T14:31:09;10.25;;;6.00;;
61840;SDS011;47773;53.174;6.614;2023-02-28T14:33:57;12.68;;;7.35;;
61840;SDS011;47773;53.174;6.614;2023-02-28T14:36:30;14.35;;;7.90;;
61840;SDS011;47773;53.174;6.614;2023-02-28T14:41:30;11.82;;;6.75;;
61840;SDS011;47773;53.174;6.614;2023-02-28T14:44:03;11.52;;;6.65;;
61840;SDS011;47773;53.174;6.614;2023-02-28T14:46:38;13.98;;;6.75;;
61840;SDS011;47773;53.174;6.614;2023-02-28T14:49:06;10.32;;;6.32;;
61840;SDS011;47773;53.174;6.614;2023-02-28T14:52:05;13.98;;;6.68;;
61840;SDS011;47773;53.174;6.614;2023-02-28T14:54:34;11.65;;;6.53;;
61840;SDS011;47773;53.174;6.614;2023-02-28T14:57:01;10.63;;;5.93;;
61840;SDS011;47773;53.174;6.614;2023-02-28T14:59:32;10.80;;;6.93;;
61840;SDS011;47773;53.174;6.614;2023-02-28T15:04:43;9.75;;;6.75;;
61840;SDS011;47773;53.174;6.614;2023-02-28T15:07:16;13.18;;;6.90;;
61840;SDS011;47773;53.174;6.614;2023-02-28T15:09:42;13.43;;;6.60;;
61840;SDS011;47773;53.174;6.614;2023-02-28T15:12:09;11.05;;;6.80;;
61840;SDS011;47773;53.174;6.614;2023-02-28T15:14:41;11.90;;;7.30;;
61840;SDS011;47773;53.174;6.614;2023-02-28T15:17:11;13.15;;;6.80;;
61840;SDS011;47773;53.174;6.614;2023-02-28T15:19:48;11.45;;;7.03;;
61840;SDS011;47773;53.174;6.614;2023-02-28T15:22:18;12.05;;;7.43;;
61840;SDS011;47773;53.174;6.614;2023-02-28T15:24:51;13.18;;;7.22;;
61840;SDS011;47773;53.174;6.614;2023-02-28T15:27:21;11.50;;;6.78;;
61840;SDS011;47773;53.174;6.614;2023-02-28T15:29:54;13.82;;;7.40;;
61840;SDS011;47773;53.174;6.614;2023-02-28T15:40:27;12.50;;;5.70;;
61840;SDS011;47773;53.174;6.614;2023-02-28T15:43:28;11.18;;;6.75;;
61840;SDS011;47773;53.174;6.614;2023-02-28T15:46:01;14.55;;;7.22;;
61840;SDS011;47773;53.174;6.614;2023-02-28T15:48:30;10.57;;;6.40;;
61840;SDS011;47773;53.174;6.614;2023-02-28T15:51:01;12.93;;;6.78;;
61840;SDS011;47773;53.174;6.614;2023-02-28T15:54:11;13.55;;;7.35;;
61840;SDS011;47773;53.174;6.614;2023-02-28T15:56:28;10.68;;;6.60;;
61840;SDS011;47773;53.174;6.614;2023-02-28T15:59:03;15.15;;;9.02;;
61840;SDS011;47773;53.174;6.614;2023-02-28T16:01:35;10.85;;;6.88;;
61840;SDS011;47773;53.174;6.614;2023-02-28T16:04:04;10.27;;;6.90;;
61840;SDS011;47773;53.174;6.614;2023-02-28T16:07:13;11.63;;;6.85;;
61840;SDS011;47773;53.174;6.614;2023-02-28T16:09:37;15.00;;;7.00;;
61840;SDS011;47773;53.174;6.614;2023-02-28T16:12:03;12.43;;;7.47;;
61840;SDS011;47773;53.174;6.614;2023-02-28T16:14:30;16.17;;;9.93;;
61840;SDS011;47773;53.174;6.614;2023-02-28T16:16:57;31.38;;;17.65;;
61840;SDS011;47773;53.174;6.614;2023-02-28T16:19:29;11.98;;;7.18;;
61840;SDS011;47773;53.174;6.614;2023-02-28T16:21:56;9.68;;;6.90;;
61840;SDS011;47773;53.174;6.614;2023-02-28T16:24:22;11.88;;;8.27;;
61840;SDS011;47773;53.174;6.614;2023-02-28T16:26:48;14.15;;;6.90;;
61840;SDS011;47773;53.174;6.614;2023-02-28T16:29:30;12.77;;;7.13;;
61840;SDS011;47773;53.174;6.614;2023-02-28T16:31:57;10.40;;;6.75;;
61840;SDS011;47773;53.174;6.614;2023-02-28T16:34:24;12.68;;;7.68;;
61840;SDS011;47773;53.174;6.614;2023-02-28T16:36:50;12.10;;;7.05;;
61840;SDS011;47773;53.174;6.614;2023-02-28T16:39:16;14.23;;;9.15;;
61840;SDS011;47773;53.174;6.614;2023-02-28T16:41:43;11.63;;;7.82;;
61840;SDS011;47773;53.174;6.614;2023-02-28T16:44:29;47.92;;;21.70;;
61840;SDS011;47773;53.174;6.614;2023-02-28T16:47:00;28.63;;;13.75;;
61840;SDS011;47773;53.174;6.614;2023-02-28T16:49:27;25.00;;;12.35;;
61840;SDS011;47773;53.174;6.614;2023-02-28T16:51:53;19.15;;;10.23;;
61840;SDS011;47773;53.174;6.614;2023-02-28T16:54:18;34.28;;;16.23;;
61840;SDS011;47773;53.174;6.614;2023-02-28T16:56:45;14.35;;;8.57;;
61840;SDS011;47773;53.174;6.614;2023-02-28T16:59:12;15.43;;;7.00;;
61840;SDS011;47773;53.174;6.614;2023-02-28T17:01:39;14.35;;;7.68;;
61840;SDS011;47773;53.174;6.614;2023-02-28T17:04:04;15.77;;;9.15;;
61840;SDS011;47773;53.174;6.614;2023-02-28T17:06:30;19.85;;;11.30;;
61840;SDS011;47773;53.174;6.614;2023-02-28T17:08:56;29.70;;;13.45;;
61840;SDS011;47773;53.174;6.614;2023-02-28T17:11:23;43.03;;;20.48;;
61840;SDS011;47773;53.174;6.614;2023-02-28T17:13:50;33.03;;;15.88;;
61840;SDS011;47773;53.174;6.614;2023-02-28T17:16:27;48.42;;;22.92;;
61840;SDS011;47773;53.174;6.614;2023-02-28T17:19:03;23.95;;;12.68;;
61840;SDS011;47773;53.174;6.614;2023-02-28T17:21:31;16.67;;;9.52;;